sensor_id;sensor_type;location;lat;lon;timestamp;P1;durP1;ratioP1;P2;durP2;ratioP2
3293;SDS011;1659;51.470;6.770;2024-03-08T00:00:56;40.20;;;20.10;;
3293;SDS011;1659;51.470;6.770;2024-03-08T00:03:23;38.30;;;20.50;;
3293;SDS011;1659;51.470;6.770;2024-03-08T00:05:51;36.60;;;19.77;;
3293;SDS011;1659;51.470;6.770;2024-03-08T00:08:17;39.20;;;20.67;;
3293;SDS011;1659;51.470;6.770;2024-03-08T00:10:44;39.73;;;20.63;;
3293;SDS011;1659;51.470;6.770;2024-03-08T00:13:12;41.37;;;20.20;;
3293;SDS011;1659;51.470;6.770;2024-03-08T00:15:38;45.20;;;20.50;;
3293;SDS011;1659;51.470;6.770;2024-03-08T00:18:06;41.40;;;20.80;;
3293;SDS011;1659;51.470;6.770;2024-03-08T00:20:33;42.40;;;21.03;;
3293;SDS011;1659;51.470;6.770;2024-03-08T00:23:00;32.37;;;19.10;;
3293;SDS011;1659;51.470;6.770;2024-03-08T00:25:27;37.53;;;19.90;;
3293;SDS011;1659;51.470;6.770;2024-03-08T00:27:54;43.97;;;20.90;;
3293;SDS011;1659;51.470;6.770;2024-03-08T00:30:21;47.47;;;22.23;;
3293;SDS011;1659;51.470;6.770;2024-03-08T00:32:50;43.37;;;20.50;;
3293;SDS011;1659;51.470;6.770;2024-03-08T00:35:16;48.10;;;21.57;;
3293;SDS011;1659;51.470;6.770;2024-03-08T00:37:43;43.80;;;21.70;;
3293;SDS011;1659;51.470;6.770;2024-03-08T00:40:13;41.23;;;21.77;;
3293;SDS011;1659;51.470;6.770;2024-03-08T00:42:40;37.73;;;19.97;;
3293;SDS011;1659;51.470;6.770;2024-03-08T00:45:09;46.33;;;21.67;;
3293;SDS011;1659;51.470;6.770;2024-03-08T00:47:36;44.33;;;23.17;;
3293;SDS011;1659;51.470;6.770;2024-03-08T00:50:02;52.10;;;23.27;;
3293;SDS011;1659;51.470;6.770;2024-03-08T00:52:30;48.33;;;22.63;;
3293;SDS011;1659;51.470;6.770;2024-03-08T00:54:56;44.40;;;21.53;;
3293;SDS011;1659;51.470;6.770;2024-03-08T00:57:24;41.43;;;21.33;;
3293;SDS011;1659;51.470;6.770;2024-03-08T00:59:50;45.60;;;21.73;;
3293;SDS011;1659;51.470;6.770;2024-03-08T01:02:17;40.07;;;20.23;;
3293;SDS011;1659;51.470;6.770;2024-03-08T01:04:44;48.47;;;23.87;;
3293;SDS011;1659;51.470;6.770;2024-03-08T01:07:12;43.30;;;22.30;;
3293;SDS011;1659;51.470;6.770;2024-03-08T01:09:38;48.53;;;22.63;;
3293;SDS011;1659;51.470;6.770;2024-03-08T01:12:06;43.60;;;22.70;;
3293;SDS011;1659;51.470;6.770;2024-03-08T01:14:34;43.03;;;21.67;;
3293;SDS011;1659;51.470;6.770;2024-03-08T01:17:01;37.30;;;20.70;;
3293;SDS011;1659;51.470;6.770;2024-03-08T01:19:27;46.73;;;22.40;;
3293;SDS011;1659;51.470;6.770;2024-03-08T01:21:54;43.83;;;21.83;;
3293;SDS011;1659;51.470;6.770;2024-03-08T01:24:21;46.87;;;22.80;;
3293;SDS011;1659;51.470;6.770;2024-03-08T01:26:48;44.13;;;21.83;;
3293;SDS011;1659;51.470;6.770;2024-03-08T01:29:15;44.03;;;23.17;;
3293;SDS011;1659;51.470;6.770;2024-03-08T01:31:43;45.10;;;21.90;;
3293;SDS011;1659;51.470;6.770;2024-03-08T01:34:09;45.67;;;21.50;;
3293;SDS011;1659;51.470;6.770;2024-03-08T01:36:36;49.53;;;23.80;;
3293;SDS011;1659;51.470;6.770;2024-03-08T01:39:03;48.03;;;21.60;;
3293;SDS011;1659;51.470;6.770;2024-03-08T01:41:32;43.70;;;22.60;;
3293;SDS011;1659;51.470;6.770;2024-03-08T01:44:00;43.37;;;20.00;;
3293;SDS011;1659;51.470;6.770;2024-03-08T01:46:27;54.07;;;23.50;;
3293;SDS011;1659;51.470;6.770;2024-03-08T01:48:56;44.73;;;23.17;;
3293;SDS011;1659;51.470;6.770;2024-03-08T01:51:22;53.07;;;23.80;;
3293;SDS011;1659;51.470;6.770;2024-03-08T01:53:49;47.53;;;21.20;;
3293;SDS011;1659;51.470;6.770;2024-03-08T01:56:16;49.67;;;24.07;;
3293;SDS011;1659;51.470;6.770;2024-03-08T01:58:44;44.03;;;22.30;;
3293;SDS011;1659;51.470;6.770;2024-03-08T02:01:12;46.13;;;22.00;;
3293;SDS011;1659;51.470;6.770;2024-03-08T02:03:39;43.67;;;21.60;;
3293;SDS011;1659;51.470;6.770;2024-03-08T02:06:10;47.50;;;23.10;;
3293;SDS011;1659;51.470;6.770;2024-03-08T02:08:39;42.63;;;22.60;;
3293;SDS011;1659;51.470;6.770;2024-03-08T02:11:08;45.30;;;22.30;;
3293;SDS011;1659;51.470;6.770;2024-03-08T02:13:35;47.60;;;23.10;;
3293;SDS011;1659;51.470;6.770;2024-03-08T02:16:01;45.00;;;24.40;;
3293;SDS011;1659;51.470;6.770;2024-03-08T02:18:29;53.60;;;25.20;;
3293;SDS011;1659;51.470;6.770;2024-03-08T02:21:01;48.90;;;23.00;;
3293;SDS011;1659;51.470;6.770;2024-03-08T02:23:29;51.40;;;24.10;;
3293;SDS011;1659;51.470;6.770;2024-03-08T02:25:56;44.33;;;22.83;;
3293;SDS011;1659;51.470;6.770;2024-03-08T02:28:23;47.73;;;22.90;;
3293;SDS011;1659;51.470;6.770;2024-03-08T02:30:51;52.90;;;25.50;;
3293;SDS011;1659;51.470;6.770;2024-03-08T02:33:19;51.50;;;25.57;;
3293;SDS011;1659;51.470;6.770;2024-03-08T02:35:46;53.00;;;25.37;;
3293;SDS011;1659;51.470;6.770;2024-03-08T02:38:14;52.40;;;24.53;;
3293;SDS011;1659;51.470;6.770;2024-03-08T02:40:42;47.03;;;24.77;;
3293;SDS011;1659;51.470;6.770;2024-03-08T02:43:09;44.40;;;25.13;;
3293;SDS011;1659;51.470;6.770;2024-03-08T02:45:35;46.90;;;23.03;;
3293;SDS011;1659;51.470;6.770;2024-03-08T02:48:03;48.33;;;25.10;;
3293;SDS011;1659;51.470;6.770;2024-03-08T02:50:31;50.10;;;23.17;;
3293;SDS011;1659;51.470;6.770;2024-03-08T02:52:58;48.70;;;23.43;;
3293;SDS011;1659;51.470;6.770;2024-03-08T02:55:26;49.97;;;24.70;;
3293;SDS011;1659;51.470;6.770;2024-03-08T02:57:53;49.40;;;22.40;;
3293;SDS011;1659;51.470;6.770;2024-03-08T03:00:20;54.97;;;24.33;;
3293;SDS011;1659;51.470;6.770;2024-03-08T03:02:48;55.93;;;25.63;;
3293;SDS011;1659;51.470;6.770;2024-03-08T03:05:17;51.03;;;24.93;;
3293;SDS011;1659;51.470;6.770;2024-03-08T03:07:43;53.73;;;25.40;;
3293;SDS011;1659;51.470;6.770;2024-03-08T03:10:10;52.93;;;25.17;;
3293;SDS011;1659;51.470;6.770;2024-03-08T03:12:38;44.27;;;22.60;;
3293;SDS011;1659;51.470;6.770;2024-03-08T03:15:05;47.37;;;22.23;;
3293;SDS011;1659;51.470;6.770;2024-03-08T03:17:32;54.17;;;25.47;;
3293;SDS011;1659;51.470;6.770;2024-03-08T03:19:58;53.40;;;24.83;;
3293;SDS011;1659;51.470;6.770;2024-03-08T03:22:28;40.63;;;22.13;;
3293;SDS011;1659;51.470;6.770;2024-03-08T03:24:55;45.20;;;25.03;;
3293;SDS011;1659;51.470;6.770;2024-03-08T03:27:23;50.07;;;23.87;;
3293;SDS011;1659;51.470;6.770;2024-03-08T03:29:51;49.93;;;25.13;;
3293;SDS011;1659;51.470;6.770;2024-03-08T03:32:17;57.53;;;27.30;;
3293;SDS011;1659;51.470;6.770;2024-03-08T03:34:44;49.23;;;24.73;;
3293;SDS011;1659;51.470;6.770;2024-03-08T03:37:11;47.43;;;23.50;;
3293;SDS011;1659;51.470;6.770;2024-03-08T03:39:38;60.83;;;24.90;;
3293;SDS011;1659;51.470;6.770;2024-03-08T03:42:13;53.43;;;24.90;;
3293;SDS011;1659;51.470;6.770;2024-03-08T03:44:41;50.87;;;25.13;;
3293;SDS011;1659;51.470;6.770;2024-03-08T03:47:09;61.57;;;28.40;;
3293;SDS011;1659;51.470;6.770;2024-03-08T03:49:36;58.37;;;28.53;;
3293;SDS011;1659;51.470;6.770;2024-03-08T03:52:03;46.90;;;24.20;;
3293;SDS011;1659;51.470;6.770;2024-03-08T03:54:29;53.37;;;25.53;;
3293;SDS011;1659;51.470;6.770;2024-03-08T03:56:56;52.13;;;23.33;;
3293;SDS011;1659;51.470;6.770;2024-03-08T03:59:22;57.90;;;25.10;;
3293;SDS011;1659;51.470;6.770;2024-03-08T04:01:49;45.90;;;23.53;;
3293;SDS011;1659;51.470;6.770;2024-03-08T04:04:17;51.00;;;25.57;;
3293;SDS011;1659;51.470;6.770;2024-03-08T04:06:44;62.57;;;25.67;;
3293;SDS011;1659;51.470;6.770;2024-03-08T04:09:11;58.30;;;26.37;;
3293;SDS011;1659;51.470;6.770;2024-03-08T04:11:38;67.63;;;26.50;;
3293;SDS011;1659;51.470;6.770;2024-03-08T04:14:04;61.63;;;26.30;;
3293;SDS011;1659;51.470;6.770;2024-03-08T04:16:31;58.37;;;26.63;;
3293;SDS011;1659;51.470;6.770;2024-03-08T04:18:57;48.13;;;24.33;;
3293;SDS011;1659;51.470;6.770;2024-03-08T04:21:25;61.93;;;26.13;;
3293;SDS011;1659;51.470;6.770;2024-03-08T04:23:52;57.57;;;25.40;;
3293;SDS011;1659;51.470;6.770;2024-03-08T04:26:18;60.47;;;24.70;;
3293;SDS011;1659;51.470;6.770;2024-03-08T04:28:45;53.87;;;26.80;;
3293;SDS011;1659;51.470;6.770;2024-03-08T04:31:12;66.73;;;27.20;;
3293;SDS011;1659;51.470;6.770;2024-03-08T04:33:39;60.97;;;25.60;;
3293;SDS011;1659;51.470;6.770;2024-03-08T04:36:05;55.27;;;26.00;;
3293;SDS011;1659;51.470;6.770;2024-03-08T04:38:34;50.83;;;24.70;;
3293;SDS011;1659;51.470;6.770;2024-03-08T04:41:01;49.03;;;24.07;;
3293;SDS011;1659;51.470;6.770;2024-03-08T04:43:28;54.37;;;24.63;;
3293;SDS011;1659;51.470;6.770;2024-03-08T04:45:55;60.93;;;25.50;;
3293;SDS011;1659;51.470;6.770;2024-03-08T04:48:22;56.23;;;26.60;;
3293;SDS011;1659;51.470;6.770;2024-03-08T04:50:48;51.07;;;24.70;;
3293;SDS011;1659;51.470;6.770;2024-03-08T04:53:15;61.10;;;27.20;;
3293;SDS011;1659;51.470;6.770;2024-03-08T04:55:44;61.53;;;27.13;;
3293;SDS011;1659;51.470;6.770;2024-03-08T04:58:10;59.40;;;28.30;;
3293;SDS011;1659;51.470;6.770;2024-03-08T05:00:37;57.10;;;26.07;;
3293;SDS011;1659;51.470;6.770;2024-03-08T05:03:04;62.13;;;28.40;;
3293;SDS011;1659;51.470;6.770;2024-03-08T05:05:30;61.50;;;27.60;;
3293;SDS011;1659;51.470;6.770;2024-03-08T05:07:58;60.70;;;26.00;;
3293;SDS011;1659;51.470;6.770;2024-03-08T05:10:26;59.03;;;27.20;;
3293;SDS011;1659;51.470;6.770;2024-03-08T05:12:54;67.33;;;28.07;;
3293;SDS011;1659;51.470;6.770;2024-03-08T05:15:21;61.43;;;27.67;;
3293;SDS011;1659;51.470;6.770;2024-03-08T05:17:47;56.40;;;25.10;;
3293;SDS011;1659;51.470;6.770;2024-03-08T05:20:14;68.50;;;26.30;;
3293;SDS011;1659;51.470;6.770;2024-03-08T05:22:42;55.77;;;26.07;;
3293;SDS011;1659;51.470;6.770;2024-03-08T05:25:08;53.20;;;25.70;;
3293;SDS011;1659;51.470;6.770;2024-03-08T05:27:35;54.23;;;26.63;;
3293;SDS011;1659;51.470;6.770;2024-03-08T05:30:03;59.00;;;27.50;;
3293;SDS011;1659;51.470;6.770;2024-03-08T05:32:30;54.57;;;26.60;;
3293;SDS011;1659;51.470;6.770;2024-03-08T05:34:56;55.63;;;26.63;;
3293;SDS011;1659;51.470;6.770;2024-03-08T05:37:22;57.17;;;25.77;;
3293;SDS011;1659;51.470;6.770;2024-03-08T05:39:49;54.90;;;27.67;;
3293;SDS011;1659;51.470;6.770;2024-03-08T05:42:15;56.50;;;26.70;;
3293;SDS011;1659;51.470;6.770;2024-03-08T05:44:42;70.13;;;29.90;;
3293;SDS011;1659;51.470;6.770;2024-03-08T05:47:10;61.77;;;25.57;;
3293;SDS011;1659;51.470;6.770;2024-03-08T05:49:36;56.63;;;26.00;;
3293;SDS011;1659;51.470;6.770;2024-03-08T05:52:04;56.37;;;26.93;;
3293;SDS011;1659;51.470;6.770;2024-03-08T05:54:30;53.53;;;26.53;;
3293;SDS011;1659;51.470;6.770;2024-03-08T05:56:58;60.03;;;26.93;;
3293;SDS011;1659;51.470;6.770;2024-03-08T05:59:24;63.50;;;27.87;;
3293;SDS011;1659;51.470;6.770;2024-03-08T06:01:51;61.87;;;25.87;;
3293;SDS011;1659;51.470;6.770;2024-03-08T06:04:19;62.80;;;28.00;;
3293;SDS011;1659;51.470;6.770;2024-03-08T06:06:46;56.87;;;27.50;;
3293;SDS011;1659;51.470;6.770;2024-03-08T06:09:12;80.63;;;29.20;;
3293;SDS011;1659;51.470;6.770;2024-03-08T06:11:42;57.70;;;28.33;;
3293;SDS011;1659;51.470;6.770;2024-03-08T06:14:09;66.50;;;30.63;;
3293;SDS011;1659;51.470;6.770;2024-03-08T06:16:35;68.33;;;28.77;;
3293;SDS011;1659;51.470;6.770;2024-03-08T06:19:03;67.77;;;26.27;;
3293;SDS011;1659;51.470;6.770;2024-03-08T06:21:32;60.13;;;27.63;;
3293;SDS011;1659;51.470;6.770;2024-03-08T06:23:58;55.23;;;26.30;;
3293;SDS011;1659;51.470;6.770;2024-03-08T06:26:25;63.90;;;26.70;;
3293;SDS011;1659;51.470;6.770;2024-03-08T06:28:53;67.63;;;26.90;;
3293;SDS011;1659;51.470;6.770;2024-03-08T06:31:20;60.50;;;27.77;;
3293;SDS011;1659;51.470;6.770;2024-03-08T06:33:46;59.37;;;25.33;;
3293;SDS011;1659;51.470;6.770;2024-03-08T06:36:15;60.80;;;26.20;;
3293;SDS011;1659;51.470;6.770;2024-03-08T06:38:45;60.13;;;26.63;;
3293;SDS011;1659;51.470;6.770;2024-03-08T06:41:11;67.83;;;31.33;;
3293;SDS011;1659;51.470;6.770;2024-03-08T06:43:40;63.20;;;29.77;;
3293;SDS011;1659;51.470;6.770;2024-03-08T06:46:07;57.17;;;27.43;;
3293;SDS011;1659;51.470;6.770;2024-03-08T06:48:33;65.93;;;27.50;;
3293;SDS011;1659;51.470;6.770;2024-03-08T06:51:02;63.80;;;27.67;;
3293;SDS011;1659;51.470;6.770;2024-03-08T06:53:29;61.60;;;26.43;;
3293;SDS011;1659;51.470;6.770;2024-03-08T06:55:57;70.33;;;28.83;;
3293;SDS011;1659;51.470;6.770;2024-03-08T06:58:23;62.70;;;28.70;;
3293;SDS011;1659;51.470;6.770;2024-03-08T07:00:50;63.10;;;30.20;;
3293;SDS011;1659;51.470;6.770;2024-03-08T07:03:17;66.60;;;27.50;;
3293;SDS011;1659;51.470;6.770;2024-03-08T07:05:45;57.20;;;26.73;;
3293;SDS011;1659;51.470;6.770;2024-03-08T07:08:13;56.70;;;27.63;;
3293;SDS011;1659;51.470;6.770;2024-03-08T07:10:41;64.90;;;27.90;;
3293;SDS011;1659;51.470;6.770;2024-03-08T07:13:11;61.40;;;27.47;;
3293;SDS011;1659;51.470;6.770;2024-03-08T07:15:38;58.57;;;27.10;;
3293;SDS011;1659;51.470;6.770;2024-03-08T07:18:04;60.07;;;27.87;;
3293;SDS011;1659;51.470;6.770;2024-03-08T07:20:34;63.57;;;28.47;;
3293;SDS011;1659;51.470;6.770;2024-03-08T07:23:02;56.87;;;26.00;;
3293;SDS011;1659;51.470;6.770;2024-03-08T07:25:29;64.27;;;27.30;;
3293;SDS011;1659;51.470;6.770;2024-03-08T07:27:56;60.17;;;28.17;;
3293;SDS011;1659;51.470;6.770;2024-03-08T07:30:24;55.37;;;25.53;;
3293;SDS011;1659;51.470;6.770;2024-03-08T07:33:09;62.10;;;27.00;;
3293;SDS011;1659;51.470;6.770;2024-03-08T07:35:37;58.60;;;27.37;;
3293;SDS011;1659;51.470;6.770;2024-03-08T07:38:04;61.97;;;26.80;;
3293;SDS011;1659;51.470;6.770;2024-03-08T07:40:30;56.00;;;27.00;;
3293;SDS011;1659;51.470;6.770;2024-03-08T07:42:57;59.70;;;27.17;;
3293;SDS011;1659;51.470;6.770;2024-03-08T07:45:25;49.13;;;26.33;;
3293;SDS011;1659;51.470;6.770;2024-03-08T07:47:52;48.07;;;26.13;;
3293;SDS011;1659;51.470;6.770;2024-03-08T07:50:21;56.33;;;25.80;;
3293;SDS011;1659;51.470;6.770;2024-03-08T07:52:48;57.93;;;28.17;;
3293;SDS011;1659;51.470;6.770;2024-03-08T07:55:14;56.67;;;27.60;;
3293;SDS011;1659;51.470;6.770;2024-03-08T07:57:41;48.67;;;25.23;;
3293;SDS011;1659;51.470;6.770;2024-03-08T08:00:08;56.00;;;26.90;;
3293;SDS011;1659;51.470;6.770;2024-03-08T08:02:37;54.07;;;26.97;;
3293;SDS011;1659;51.470;6.770;2024-03-08T08:05:04;52.13;;;27.00;;
3293;SDS011;1659;51.470;6.770;2024-03-08T08:07:31;49.13;;;24.30;;
3293;SDS011;1659;51.470;6.770;2024-03-08T08:09:57;49.13;;;24.77;;
3293;SDS011;1659;51.470;6.770;2024-03-08T08:12:24;48.13;;;26.03;;
3293;SDS011;1659;51.470;6.770;2024-03-08T08:14:53;55.13;;;26.60;;
3293;SDS011;1659;51.470;6.770;2024-03-08T08:17:19;51.57;;;24.87;;
3293;SDS011;1659;51.470;6.770;2024-03-08T08:19:48;48.37;;;24.93;;
3293;SDS011;1659;51.470;6.770;2024-03-08T08:22:14;52.97;;;25.90;;
3293;SDS011;1659;51.470;6.770;2024-03-08T08:24:43;58.43;;;26.40;;
3293;SDS011;1659;51.470;6.770;2024-03-08T08:27:10;54.20;;;25.13;;
3293;SDS011;1659;51.470;6.770;2024-03-08T08:29:37;42.23;;;23.93;;
3293;SDS011;1659;51.470;6.770;2024-03-08T08:32:03;53.27;;;25.13;;
3293;SDS011;1659;51.470;6.770;2024-03-08T08:34:30;48.17;;;24.17;;
3293;SDS011;1659;51.470;6.770;2024-03-08T08:36:58;44.93;;;22.97;;
3293;SDS011;1659;51.470;6.770;2024-03-08T08:39:25;41.90;;;23.10;;
3293;SDS011;1659;51.470;6.770;2024-03-08T08:41:52;52.53;;;24.77;;
3293;SDS011;1659;51.470;6.770;2024-03-08T08:44:19;44.90;;;23.40;;
3293;SDS011;1659;51.470;6.770;2024-03-08T08:46:46;49.03;;;25.40;;
3293;SDS011;1659;51.470;6.770;2024-03-08T08:49:12;48.77;;;26.03;;
3293;SDS011;1659;51.470;6.770;2024-03-08T08:51:41;48.20;;;23.63;;
3293;SDS011;1659;51.470;6.770;2024-03-08T08:54:09;47.50;;;25.43;;
3293;SDS011;1659;51.470;6.770;2024-03-08T08:56:36;42.17;;;23.80;;
3293;SDS011;1659;51.470;6.770;2024-03-08T08:59:03;42.20;;;23.37;;
3293;SDS011;1659;51.470;6.770;2024-03-08T09:01:29;47.70;;;23.60;;
3293;SDS011;1659;51.470;6.770;2024-03-08T09:03:56;41.67;;;23.07;;
3293;SDS011;1659;51.470;6.770;2024-03-08T09:06:23;43.13;;;23.80;;
3293;SDS011;1659;51.470;6.770;2024-03-08T09:08:50;42.23;;;23.73;;
3293;SDS011;1659;51.470;6.770;2024-03-08T09:11:18;46.87;;;23.83;;
3293;SDS011;1659;51.470;6.770;2024-03-08T09:13:45;42.80;;;22.33;;
3293;SDS011;1659;51.470;6.770;2024-03-08T09:16:12;40.83;;;22.60;;
3293;SDS011;1659;51.470;6.770;2024-03-08T09:18:39;42.27;;;22.87;;
3293;SDS011;1659;51.470;6.770;2024-03-08T09:21:06;41.63;;;23.60;;
3293;SDS011;1659;51.470;6.770;2024-03-08T09:23:34;45.43;;;22.67;;
3293;SDS011;1659;51.470;6.770;2024-03-08T09:26:01;37.23;;;21.70;;
3293;SDS011;1659;51.470;6.770;2024-03-08T09:28:30;39.90;;;23.23;;
3293;SDS011;1659;51.470;6.770;2024-03-08T09:30:57;41.07;;;23.47;;
3293;SDS011;1659;51.470;6.770;2024-03-08T09:33:24;42.07;;;23.47;;
3293;SDS011;1659;51.470;6.770;2024-03-08T09:35:50;49.67;;;24.20;;
3293;SDS011;1659;51.470;6.770;2024-03-08T09:38:18;36.07;;;23.30;;
3293;SDS011;1659;51.470;6.770;2024-03-08T09:40:45;36.47;;;23.30;;
3293;SDS011;1659;51.470;6.770;2024-03-08T09:43:13;38.40;;;22.50;;
3293;SDS011;1659;51.470;6.770;2024-03-08T09:45:41;37.40;;;22.20;;
3293;SDS011;1659;51.470;6.770;2024-03-08T09:48:08;38.37;;;21.57;;
3293;SDS011;1659;51.470;6.770;2024-03-08T09:50:38;42.10;;;23.23;;
3293;SDS011;1659;51.470;6.770;2024-03-08T09:53:06;39.90;;;20.63;;
3293;SDS011;1659;51.470;6.770;2024-03-08T09:55:34;42.70;;;23.30;;
3293;SDS011;1659;51.470;6.770;2024-03-08T09:58:02;34.87;;;20.83;;
3293;SDS011;1659;51.470;6.770;2024-03-08T10:01:02;40.60;;;21.77;;
3293;SDS011;1659;51.470;6.770;2024-03-08T10:03:29;36.63;;;20.73;;
3293;SDS011;1659;51.470;6.770;2024-03-08T10:05:57;35.10;;;21.20;;
3293;SDS011;1659;51.470;6.770;2024-03-08T10:08:25;36.40;;;21.90;;
3293;SDS011;1659;51.470;6.770;2024-03-08T10:10:52;38.20;;;22.70;;
3293;SDS011;1659;51.470;6.770;2024-03-08T10:13:18;34.83;;;22.30;;
3293;SDS011;1659;51.470;6.770;2024-03-08T10:15:45;39.13;;;21.90;;
3293;SDS011;1659;51.470;6.770;2024-03-08T10:18:13;40.03;;;24.03;;
3293;SDS011;1659;51.470;6.770;2024-03-08T10:20:40;38.43;;;21.20;;
3293;SDS011;1659;51.470;6.770;2024-03-08T10:23:08;38.07;;;21.10;;
3293;SDS011;1659;51.470;6.770;2024-03-08T10:25:35;38.97;;;23.67;;
3293;SDS011;1659;51.470;6.770;2024-03-08T10:28:03;35.47;;;21.03;;
3293;SDS011;1659;51.470;6.770;2024-03-08T10:30:30;37.23;;;22.40;;
3293;SDS011;1659;51.470;6.770;2024-03-08T10:32:57;34.30;;;21.43;;
3293;SDS011;1659;51.470;6.770;2024-03-08T10:35:25;38.40;;;21.17;;
3293;SDS011;1659;51.470;6.770;2024-03-08T10:37:52;35.47;;;19.13;;
3293;SDS011;1659;51.470;6.770;2024-03-08T10:40:25;41.07;;;21.73;;
3293;SDS011;1659;51.470;6.770;2024-03-08T10:42:53;37.87;;;23.10;;
3293;SDS011;1659;51.470;6.770;2024-03-08T10:45:29;36.17;;;22.03;;
3293;SDS011;1659;51.470;6.770;2024-03-08T10:48:04;36.00;;;22.23;;
3293;SDS011;1659;51.470;6.770;2024-03-08T10:50:42;38.60;;;22.27;;
3293;SDS011;1659;51.470;6.770;2024-03-08T10:53:10;41.97;;;23.70;;
3293;SDS011;1659;51.470;6.770;2024-03-08T10:55:39;37.20;;;21.03;;
3293;SDS011;1659;51.470;6.770;2024-03-08T10:58:06;34.13;;;21.53;;
3293;SDS011;1659;51.470;6.770;2024-03-08T11:00:33;41.47;;;21.40;;
3293;SDS011;1659;51.470;6.770;2024-03-08T11:03:00;36.33;;;19.67;;
3293;SDS011;1659;51.470;6.770;2024-03-08T11:05:31;35.87;;;21.27;;
3293;SDS011;1659;51.470;6.770;2024-03-08T11:08:05;32.57;;;18.90;;
3293;SDS011;1659;51.470;6.770;2024-03-08T11:10:46;31.87;;;21.23;;
3293;SDS011;1659;51.470;6.770;2024-03-08T11:15:58;36.63;;;23.60;;
3293;SDS011;1659;51.470;6.770;2024-03-08T11:18:25;32.67;;;21.90;;
3293;SDS011;1659;51.470;6.770;2024-03-08T11:20:53;38.33;;;20.97;;
3293;SDS011;1659;51.470;6.770;2024-03-08T11:23:23;34.43;;;20.93;;
3293;SDS011;1659;51.470;6.770;2024-03-08T11:25:51;36.80;;;22.87;;
3293;SDS011;1659;51.470;6.770;2024-03-08T11:28:18;35.60;;;21.00;;
3293;SDS011;1659;51.470;6.770;2024-03-08T11:30:46;38.37;;;21.77;;
3293;SDS011;1659;51.470;6.770;2024-03-08T11:33:34;36.57;;;22.40;;
3293;SDS011;1659;51.470;6.770;2024-03-08T11:36:02;37.60;;;21.13;;
3293;SDS011;1659;51.470;6.770;2024-03-08T11:38:31;39.20;;;22.53;;
3293;SDS011;1659;51.470;6.770;2024-03-08T11:40:58;40.47;;;22.20;;
3293;SDS011;1659;51.470;6.770;2024-03-08T11:43:25;38.47;;;22.77;;
3293;SDS011;1659;51.470;6.770;2024-03-08T11:45:53;39.90;;;24.13;;
3293;SDS011;1659;51.470;6.770;2024-03-08T11:48:34;41.87;;;23.50;;
3293;SDS011;1659;51.470;6.770;2024-03-08T11:51:01;41.23;;;23.83;;
3293;SDS011;1659;51.470;6.770;2024-03-08T11:53:28;39.20;;;22.57;;
3293;SDS011;1659;51.470;6.770;2024-03-08T11:55:56;37.03;;;22.70;;
3293;SDS011;1659;51.470;6.770;2024-03-08T11:58:32;42.70;;;23.20;;
3293;SDS011;1659;51.470;6.770;2024-03-08T12:01:02;35.57;;;22.20;;
3293;SDS011;1659;51.470;6.770;2024-03-08T12:03:30;38.33;;;22.30;;
3293;SDS011;1659;51.470;6.770;2024-03-08T12:05:59;39.07;;;22.70;;
3293;SDS011;1659;51.470;6.770;2024-03-08T12:08:25;41.43;;;23.20;;
3293;SDS011;1659;51.470;6.770;2024-03-08T12:10:53;35.80;;;21.47;;
3293;SDS011;1659;51.470;6.770;2024-03-08T12:13:25;38.37;;;24.07;;
3293;SDS011;1659;51.470;6.770;2024-03-08T12:15:55;38.97;;;22.13;;
3293;SDS011;1659;51.470;6.770;2024-03-08T12:18:23;36.40;;;21.53;;
3293;SDS011;1659;51.470;6.770;2024-03-08T12:20:50;39.13;;;24.67;;
3293;SDS011;1659;51.470;6.770;2024-03-08T12:23:17;34.80;;;21.60;;
3293;SDS011;1659;51.470;6.770;2024-03-08T12:25:43;35.70;;;22.13;;
3293;SDS011;1659;51.470;6.770;2024-03-08T12:28:10;37.93;;;22.00;;
3293;SDS011;1659;51.470;6.770;2024-03-08T12:30:45;36.00;;;22.20;;
3293;SDS011;1659;51.470;6.770;2024-03-08T12:33:14;36.50;;;20.37;;
3293;SDS011;1659;51.470;6.770;2024-03-08T12:35:49;36.43;;;20.80;;
3293;SDS011;1659;51.470;6.770;2024-03-08T12:38:18;35.13;;;21.60;;
3293;SDS011;1659;51.470;6.770;2024-03-08T12:40:49;34.83;;;21.90;;
3293;SDS011;1659;51.470;6.770;2024-03-08T12:43:17;33.57;;;22.07;;
3293;SDS011;1659;51.470;6.770;2024-03-08T12:45:45;36.20;;;20.97;;
3293;SDS011;1659;51.470;6.770;2024-03-08T12:48:12;36.67;;;22.30;;
3293;SDS011;1659;51.470;6.770;2024-03-08T12:50:40;31.73;;;20.60;;
3293;SDS011;1659;51.470;6.770;2024-03-08T12:53:09;29.37;;;20.27;;
3293;SDS011;1659;51.470;6.770;2024-03-08T12:55:35;32.00;;;20.60;;
3293;SDS011;1659;51.470;6.770;2024-03-08T12:58:02;30.93;;;18.93;;
3293;SDS011;1659;51.470;6.770;2024-03-08T13:00:31;31.97;;;20.77;;
3293;SDS011;1659;51.470;6.770;2024-03-08T13:02:59;33.30;;;19.93;;
3293;SDS011;1659;51.470;6.770;2024-03-08T13:05:26;28.63;;;18.53;;
3293;SDS011;1659;51.470;6.770;2024-03-08T13:07:52;26.20;;;18.80;;
3293;SDS011;1659;51.470;6.770;2024-03-08T13:10:19;28.90;;;17.90;;
3293;SDS011;1659;51.470;6.770;2024-03-08T13:12:47;34.87;;;20.90;;
3293;SDS011;1659;51.470;6.770;2024-03-08T13:15:15;32.03;;;19.57;;
3293;SDS011;1659;51.470;6.770;2024-03-08T13:17:45;28.97;;;17.80;;
3293;SDS011;1659;51.470;6.770;2024-03-08T13:20:13;36.40;;;19.57;;
3293;SDS011;1659;51.470;6.770;2024-03-08T13:22:42;27.33;;;17.70;;
3293;SDS011;1659;51.470;6.770;2024-03-08T13:25:09;23.47;;;16.57;;
3293;SDS011;1659;51.470;6.770;2024-03-08T13:27:38;23.63;;;15.90;;
3293;SDS011;1659;51.470;6.770;2024-03-08T13:30:06;25.50;;;14.37;;
3293;SDS011;1659;51.470;6.770;2024-03-08T13:32:37;18.73;;;13.23;;
3293;SDS011;1659;51.470;6.770;2024-03-08T13:35:05;22.73;;;14.17;;
3293;SDS011;1659;51.470;6.770;2024-03-08T13:37:39;21.20;;;13.13;;
3293;SDS011;1659;51.470;6.770;2024-03-08T13:40:06;22.70;;;13.63;;
3293;SDS011;1659;51.470;6.770;2024-03-08T13:42:38;16.50;;;11.40;;
3293;SDS011;1659;51.470;6.770;2024-03-08T13:45:06;18.93;;;10.93;;
3293;SDS011;1659;51.470;6.770;2024-03-08T13:47:35;14.33;;;10.80;;
3293;SDS011;1659;51.470;6.770;2024-03-08T13:50:02;17.20;;;10.77;;
3293;SDS011;1659;51.470;6.770;2024-03-08T13:52:32;18.60;;;10.27;;
3293;SDS011;1659;51.470;6.770;2024-03-08T13:55:00;16.00;;;10.30;;
3293;SDS011;1659;51.470;6.770;2024-03-08T13:57:27;14.80;;;10.27;;
3293;SDS011;1659;51.470;6.770;2024-03-08T13:59:53;13.67;;;10.13;;
3293;SDS011;1659;51.470;6.770;2024-03-08T14:02:20;13.07;;;9.63;;
3293;SDS011;1659;51.470;6.770;2024-03-08T14:04:47;14.90;;;10.33;;
3293;SDS011;1659;51.470;6.770;2024-03-08T14:07:14;14.30;;;9.50;;
3293;SDS011;1659;51.470;6.770;2024-03-08T14:09:41;14.13;;;9.60;;
3293;SDS011;1659;51.470;6.770;2024-03-08T14:12:09;16.50;;;9.60;;
3293;SDS011;1659;51.470;6.770;2024-03-08T14:14:36;12.57;;;9.20;;
3293;SDS011;1659;51.470;6.770;2024-03-08T14:17:02;12.60;;;8.70;;
3293;SDS011;1659;51.470;6.770;2024-03-08T14:19:29;13.63;;;8.93;;
3293;SDS011;1659;51.470;6.770;2024-03-08T14:21:56;17.43;;;9.43;;
3293;SDS011;1659;51.470;6.770;2024-03-08T14:24:24;14.20;;;8.97;;
3293;SDS011;1659;51.470;6.770;2024-03-08T14:26:51;11.70;;;8.83;;
3293;SDS011;1659;51.470;6.770;2024-03-08T14:29:19;12.53;;;8.47;;
3293;SDS011;1659;51.470;6.770;2024-03-08T14:31:45;13.03;;;8.17;;
3293;SDS011;1659;51.470;6.770;2024-03-08T14:34:12;10.10;;;8.47;;
3293;SDS011;1659;51.470;6.770;2024-03-08T14:36:39;13.80;;;8.43;;
3293;SDS011;1659;51.470;6.770;2024-03-08T14:39:06;15.40;;;9.33;;
3293;SDS011;1659;51.470;6.770;2024-03-08T14:41:33;15.00;;;9.60;;
3293;SDS011;1659;51.470;6.770;2024-03-08T14:44:00;13.43;;;9.30;;
3293;SDS011;1659;51.470;6.770;2024-03-08T14:46:28;13.73;;;10.23;;
3293;SDS011;1659;51.470;6.770;2024-03-08T14:48:54;12.33;;;9.30;;
3293;SDS011;1659;51.470;6.770;2024-03-08T14:51:21;12.20;;;9.30;;
3293;SDS011;1659;51.470;6.770;2024-03-08T14:53:51;11.87;;;9.23;;